KTPA

Tampa International Airport

Tampa, Florida, USA
METAR KTPA 201153Z 00000KT 10SM BKN240 09/02 A3028 RMK AO2 SLP253 T00940022 10100 20083 53006
Observed Flight Rules
Jan-20 @ 11:53 UTC (an hour ago) Visual Flight Rules
Wind Visibility Clouds
Calm 10 miles
  • Broken at 24,000' AGL
Temperatures Readings
Current 9°C / 48°F
Dewpoint 2°C / 36°F
Humidity 62%
Altimeter 30.28" Hg
Pressure 1025.3 hPa
Elevation 11
METAR KTPA 201153Z 00000KT 10SM BKN240 09/02 A3028 RMK AO2 SLP253 T00940022 10100 20083 53006
Observed Flight Rules
Jan-20 @ 11:53 UTC
(an hour ago)
VFR
Wind Visibility
Calm 10 miles
Clouds
  • Broken at 24,000' AGL
Temperature Dewpoint
9°C / 48°F 2°C / 36°F
Humidity Altimeter Pressure
62% 30.28" Hg 1025.3 hPa